MKJSTNCB

Guest
Details From MKJS - Montego Bay Sangster Intl
To TNCB - Bonaire Flamingo
Flight Number -
Tags Generated
Created
Modified
Stats Distance 677 nm / 1,253 km
Max Altitude 0 ft / 0 m
Waypoints 3
Social Downloads 2
Likes 0
Share VATSIM

Download

Looking for another format? Having issues loading an existing format? Contact us
Advertisement - Login to hide

Notes

Generated

Route

MKJS PJB TNCB

ID Type Via Altitude Latitude Longitude Leg Dist Tot Dist Heading (true) Name
O MKJS APT - 0 ft / 0 m 18.49873˚ -77.92482˚ - 0 nm - -
PJB NDB - 0 ft / 0 m 12.13282˚ -68.28101˚ 676 nm 676 nm 123° / 126° BONAIRE NDB
O TNCB APT - 0 ft / 0 m 12.13144˚ -68.28175˚ 0 nm 676 nm 208° / 208° -

Altitude Profile

Advertisement - Login to hide

Weather


0- 5 10 15 20 25 30 35+ Temperature / ° C

Clouds and Precipitation
Forecast for 2018-05-23 18:00 UTC. Updated an hour ago

Ground ~20,000 ft ~40,000 ft Winds

MKJS

Details ICAO MKJS (MBJ)
Name Sangster Intl
Region Jamaica
Timezone America/Jamaica (UTC-5.0)
Stats Elevation 6 ft / 2 m (AMSL)
Location 18.503549° -77.913698°
Runways 1
Magnetic Variation 7.006° W

METAR

MKJS 231800Z 07015KT 9999 FEW022 31/24 Q1013

Decode

TAF

TAF MKJS 231715Z 2318/2418 07015KT 9999 FEW022 PROB40 TEMPO 2319/2324 7000 TSRA BKN018 SCT020CB BECMG 2400/2402 13005KT FEW020 FEW022CB BECMG 2414/2416 06015KT SCT020 FEW022CB

Decode

Departure Runways

ID Width Length Bearing (true) Bearing (mag) Surface Threshold Offset Overrun Length
07 161 ft / 49 m 8,495 ft / 2,589 m 65.37° 72.38° Asphalt 220 ft / 67 m 312 ft / 95 m
25 161 ft / 49 m 8,495 ft / 2,589 m 245.37° 252.38° Asphalt 577 ft / 176 m 200 ft / 61 m

TNCB

Details ICAO TNCB (BON)
Name Bonaire Flamingo
Region Caribbean Netherlands, Aruba, Curaçao, Sint Maarten
Timezone America/Curacao (UTC-4.0)
Stats Elevation 20 ft / 6 m (AMSL)
Location 12.131046° -68.268511°
Runways 1
Magnetic Variation 11.744° W

METAR

TNCB 231755Z 11018KT 070V150 9999 // SCT019 30/24 Q1014 RE//

Decode

TAF

TAF TNCB 231636Z 2318/2424 09016KT 9999 SCT018 TEMPO 2318/2324 10020G30KT TEMPO 2415/2424 10020G30KT

Decode

Destination Runways

ID Width Length Bearing (true) Bearing (mag) Surface Threshold Offset Overrun Length
10 148 ft / 45 m 9,451 ft / 2,881 m 91.75° 103.49° Asphalt 0 ft / 0 m 0 ft / 0 m
28 148 ft / 45 m 9,451 ft / 2,881 m 271.76° 283.50° Asphalt 0 ft / 0 m 200 ft / 61 m